createdAt,value
2018-03-23T00:00:37.631Z,99.90
2018-03-23T00:01:40.158Z,99.90
2018-03-23T00:02:42.693Z,99.90
2018-03-23T00:03:45.225Z,99.90
2018-03-23T00:04:47.758Z,99.90
2018-03-23T00:05:50.312Z,99.90
2018-03-23T00:08:01.828Z,99.90
2018-03-23T00:09:04.363Z,99.90
2018-03-23T00:10:06.890Z,99.90
2018-03-23T00:11:09.447Z,99.90
2018-03-23T00:12:11.974Z,99.90
2018-03-23T00:13:14.501Z,99.90
2018-03-23T00:14:17.034Z,99.90
2018-03-23T00:15:19.590Z,99.90
2018-03-23T00:16:22.887Z,99.90
2018-03-23T00:17:25.458Z,99.90
2018-03-23T00:18:28.000Z,99.90
2018-03-23T00:19:31.308Z,99.90
2018-03-23T00:20:33.847Z,99.90
2018-03-23T00:21:37.169Z,99.90
2018-03-23T00:22:39.688Z,99.90
2018-03-23T00:23:42.209Z,99.90
2018-03-23T00:24:44.742Z,99.90
2018-03-23T00:25:48.043Z,99.90
2018-03-23T00:26:50.598Z,99.90
2018-03-23T00:27:53.109Z,99.90
2018-03-23T00:28:55.664Z,99.90
2018-03-23T00:29:58.184Z,99.90
2018-03-23T00:31:01.518Z,99.90
2018-03-23T00:32:04.084Z,99.90
2018-03-23T00:33:06.611Z,99.90
2018-03-23T00:34:09.147Z,99.90
2018-03-23T00:35:11.667Z,99.90
2018-03-23T00:36:14.197Z,99.90
2018-03-23T00:37:17.530Z,99.90
2018-03-23T00:38:20.050Z,99.90
2018-03-23T00:39:23.343Z,99.90
2018-03-23T00:40:25.869Z,99.90
2018-03-23T00:41:28.398Z,99.90
2018-03-23T00:42:30.944Z,99.90
2018-03-23T00:43:34.258Z,99.90
2018-03-23T00:44:36.787Z,99.90
2018-03-23T00:45:39.355Z,99.90
2018-03-23T00:46:41.873Z,99.90
2018-03-23T00:47:44.400Z,99.90
2018-03-23T00:48:46.954Z,99.90
2018-03-23T00:49:49.502Z,99.90
2018-03-23T00:50:52.817Z,99.90
2018-03-23T00:51:55.346Z,99.90
2018-03-23T00:52:57.863Z,99.90
2018-03-23T00:54:00.385Z,99.90
2018-03-23T00:55:03.680Z,99.90
2018-03-23T00:56:07.015Z,99.90
2018-03-23T00:57:09.537Z,99.90
2018-03-23T00:58:12.062Z,99.90
2018-03-23T00:59:14.586Z,99.90
2018-03-23T01:00:17.109Z,99.90
2018-03-23T01:01:19.663Z,99.90
2018-03-23T01:02:22.185Z,99.90
2018-03-23T01:03:24.705Z,99.90
2018-03-23T01:04:27.512Z,99.90
2018-03-23T01:05:30.046Z,99.90
2018-03-23T01:06:32.640Z,99.90
2018-03-23T01:07:35.924Z,99.90
2018-03-23T01:08:38.449Z,99.90
2018-03-23T01:09:40.991Z,99.90
2018-03-23T01:10:43.544Z,99.90
2018-03-23T01:11:46.154Z,99.90
2018-03-23T01:12:48.674Z,99.90
2018-03-23T01:13:51.192Z,99.90
2018-03-23T01:14:53.707Z,99.90
2018-03-23T01:15:56.236Z,99.90
2018-03-23T01:16:59.563Z,99.90
2018-03-23T01:18:02.094Z,99.90
2018-03-23T01:19:05.390Z,99.90
2018-03-23T01:20:07.910Z,99.90
2018-03-23T01:21:10.425Z,99.90
2018-03-23T01:22:15.873Z,99.90
2018-03-23T01:23:18.407Z,99.90
2018-03-23T01:24:21.714Z,99.90
2018-03-23T01:25:24.240Z,99.90
2018-03-23T01:26:26.761Z,99.90
2018-03-23T01:27:29.319Z,99.90
2018-03-23T01:28:31.877Z,99.90
2018-03-23T01:29:34.406Z,99.90
2018-03-23T01:30:36.937Z,99.90
2018-03-23T01:31:39.457Z,99.90
2018-03-23T01:32:42.741Z,99.90
2018-03-23T01:33:46.061Z,99.90
2018-03-23T01:34:48.581Z,99.90
2018-03-23T01:35:51.865Z,99.90
2018-03-23T01:36:55.185Z,99.90
2018-03-23T01:37:57.736Z,99.90
2018-03-23T01:39:00.306Z,99.90
2018-03-23T01:40:02.861Z,99.90
2018-03-23T01:41:06.145Z,99.90
2018-03-23T01:42:08.693Z,99.90
2018-03-23T01:43:11.245Z,99.90
2018-03-23T01:44:13.769Z,99.90
2018-03-23T01:45:16.321Z,99.90
2018-03-23T01:46:18.844Z,99.90
2018-03-23T01:47:21.380Z,99.90
2018-03-23T01:48:23.940Z,99.90
2018-03-23T01:49:26.494Z,99.90
2018-03-23T01:50:29.012Z,99.90
2018-03-23T01:51:31.568Z,99.90
2018-03-23T01:52:34.097Z,99.90
2018-03-23T01:53:43.493Z,99.90
2018-03-23T01:54:46.789Z,99.90
2018-03-23T01:55:49.312Z,99.90
2018-03-23T01:56:51.872Z,99.90
2018-03-23T01:57:54.398Z,99.90
2018-03-23T01:58:56.950Z,99.90
2018-03-23T02:00:00.231Z,99.90
2018-03-23T02:01:03.676Z,99.90
2018-03-23T02:02:06.198Z,99.90
2018-03-23T02:03:08.716Z,99.90
2018-03-23T02:04:11.237Z,99.90
2018-03-23T02:05:13.757Z,99.90
2018-03-23T02:06:16.310Z,99.90
2018-03-23T02:07:18.837Z,99.90
2018-03-23T02:08:21.361Z,99.90
2018-03-23T02:09:24.658Z,99.90
2018-03-23T02:10:27.986Z,99.90
2018-03-23T02:11:30.554Z,99.90
2018-03-23T02:12:33.081Z,99.90
2018-03-23T02:13:36.370Z,99.90
2018-03-23T02:14:38.892Z,99.90
2018-03-23T02:15:41.422Z,99.90
2018-03-23T02:16:43.979Z,99.90
2018-03-23T02:17:46.502Z,99.90
2018-03-23T02:18:49.020Z,99.90
2018-03-23T02:19:51.541Z,99.90
2018-03-23T02:20:54.105Z,99.90
2018-03-23T02:21:56.792Z,99.90
2018-03-23T02:23:00.087Z,99.90
2018-03-23T02:24:02.616Z,99.90
2018-03-23T02:25:05.165Z,99.90
2018-03-23T02:26:07.733Z,99.90
2018-03-23T02:27:10.304Z,99.90
2018-03-23T02:28:12.839Z,99.90
2018-03-23T02:29:15.360Z,99.90
2018-03-23T02:30:17.933Z,99.90
2018-03-23T02:31:21.229Z,99.90
2018-03-23T02:32:24.524Z,99.90
2018-03-23T02:33:27.055Z,99.90
2018-03-23T02:34:29.592Z,99.90
2018-03-23T02:35:32.153Z,99.90
2018-03-23T02:36:34.674Z,99.90
2018-03-23T02:37:37.956Z,99.90
2018-03-23T02:38:41.253Z,99.90
2018-03-23T02:39:43.791Z,99.90
2018-03-23T02:40:47.115Z,99.90
2018-03-23T02:41:49.643Z,99.90
2018-03-23T02:42:52.805Z,99.90
2018-03-23T02:43:55.326Z,99.90
2018-03-23T02:44:57.850Z,99.90
2018-03-23T02:46:00.364Z,99.90
2018-03-23T02:47:02.885Z,99.90
2018-03-23T02:48:05.446Z,99.90
2018-03-23T02:49:07.960Z,99.90
2018-03-23T02:50:10.544Z,99.90
2018-03-23T02:51:13.074Z,99.90
2018-03-23T02:52:15.616Z,99.90
2018-03-23T02:53:18.135Z,99.90
2018-03-23T02:54:20.675Z,99.90
2018-03-23T02:55:23.232Z,99.90
2018-03-23T02:56:26.527Z,99.90
2018-03-23T02:57:29.050Z,99.90
2018-03-23T02:58:31.576Z,99.90
2018-03-23T02:59:34.105Z,99.90
2018-03-23T03:00:37.435Z,99.90
2018-03-23T03:01:39.965Z,99.90
2018-03-23T03:02:43.294Z,99.90
2018-03-23T03:03:45.841Z,99.90
2018-03-23T03:04:48.360Z,99.90
2018-03-23T03:05:50.887Z,99.90
2018-03-23T03:06:53.409Z,99.90
2018-03-23T03:07:56.754Z,99.90
2018-03-23T03:08:59.276Z,99.90
2018-03-23T03:10:01.814Z,99.90
2018-03-23T03:11:04.342Z,99.90
2018-03-23T03:12:06.874Z,99.90
2018-03-23T03:13:09.434Z,99.90
2018-03-23T03:14:12.722Z,99.90
2018-03-23T03:15:15.250Z,99.90
2018-03-23T03:16:17.774Z,99.90
2018-03-23T03:17:20.305Z,99.90
2018-03-23T03:18:23.629Z,99.90
2018-03-23T03:19:26.150Z,99.90
2018-03-23T03:20:29.451Z,99.90
2018-03-23T03:21:32.766Z,99.90
2018-03-23T03:22:35.302Z,99.90
2018-03-23T03:23:37.878Z,99.90
2018-03-23T03:24:40.408Z,99.90
2018-03-23T03:25:42.928Z,99.90
2018-03-23T03:26:45.457Z,99.90
2018-03-23T03:27:48.749Z,99.90
2018-03-23T03:28:51.298Z,99.90
2018-03-23T03:29:54.594Z,99.90
2018-03-23T03:30:57.923Z,99.90
2018-03-23T03:32:00.452Z,99.90
2018-03-23T03:33:02.974Z,99.90
2018-03-23T03:34:05.533Z,99.90
2018-03-23T03:35:08.057Z,99.90
2018-03-23T03:36:10.574Z,99.90
2018-03-23T03:37:13.125Z,99.90
2018-03-23T03:38:15.641Z,99.90
2018-03-23T03:39:18.966Z,99.90
2018-03-23T03:40:21.507Z,99.90
2018-03-23T03:41:24.027Z,99.90
2018-03-23T03:42:26.544Z,99.90
2018-03-23T03:43:29.066Z,99.90
2018-03-23T03:44:31.633Z,99.90
2018-03-23T03:45:34.152Z,99.90
2018-03-23T03:46:36.686Z,99.90
2018-03-23T03:47:39.980Z,99.90
2018-03-23T03:48:42.510Z,99.90
2018-03-23T03:49:45.081Z,99.90
2018-03-23T03:50:47.601Z,99.90
2018-03-23T03:51:50.121Z,99.90
2018-03-23T03:52:53.423Z,99.90
2018-03-23T03:53:55.957Z,99.90
2018-03-23T03:54:58.528Z,99.90
2018-03-23T03:56:01.052Z,99.90
2018-03-23T03:57:03.579Z,99.90
2018-03-23T03:58:06.872Z,99.90
2018-03-23T03:59:10.161Z,99.90
2018-03-23T04:00:13.491Z,99.90
2018-03-23T04:01:16.117Z,99.90
2018-03-23T04:02:18.678Z,99.90
2018-03-23T04:03:21.206Z,99.90
2018-03-23T04:04:23.737Z,99.90
2018-03-23T04:05:26.248Z,99.90
2018-03-23T04:06:28.812Z,99.90
2018-03-23T04:07:31.341Z,99.90
2018-03-23T04:08:33.860Z,99.90
2018-03-23T04:09:37.179Z,99.90
2018-03-23T04:10:39.694Z,99.90
2018-03-23T04:11:42.243Z,99.90
2018-03-23T04:12:44.774Z,99.90
2018-03-23T04:13:47.292Z,99.90
2018-03-23T04:14:49.848Z,99.90
2018-03-23T04:15:52.380Z,99.90
2018-03-23T04:16:54.910Z,99.90
2018-03-23T04:17:58.221Z,99.90
2018-03-23T04:19:00.749Z,99.90
2018-03-23T04:20:04.074Z,99.90
2018-03-23T04:21:06.600Z,99.90
2018-03-23T04:22:09.935Z,99.90
2018-03-23T04:23:12.455Z,99.90
2018-03-23T04:24:15.750Z,99.90
2018-03-23T04:25:19.037Z,99.90
2018-03-23T04:26:22.332Z,99.90
2018-03-23T04:27:24.902Z,99.90
2018-03-23T04:28:27.433Z,99.90
2018-03-23T04:29:29.965Z,99.90
2018-03-23T04:30:32.492Z,99.90
2018-03-23T04:31:35.018Z,99.90
2018-03-23T04:32:37.582Z,99.90
2018-03-23T04:33:40.114Z,99.90
2018-03-23T04:34:42.672Z,99.90
2018-03-23T04:35:45.201Z,99.90
2018-03-23T04:36:48.493Z,99.90
2018-03-23T04:37:51.805Z,99.90
2018-03-23T04:38:54.365Z,99.90
2018-03-23T04:39:56.889Z,99.90
2018-03-23T04:40:59.400Z,99.90
2018-03-23T04:42:02.042Z,99.90
2018-03-23T04:43:05.326Z,99.90
2018-03-23T04:44:08.651Z,99.90
2018-03-23T04:45:11.179Z,99.90
2018-03-23T04:46:14.466Z,99.90
2018-03-23T04:47:17.767Z,99.90
2018-03-23T04:48:20.313Z,99.90
2018-03-23T04:49:23.602Z,99.90
2018-03-23T04:50:26.884Z,99.90
2018-03-23T04:51:30.174Z,99.90
2018-03-23T04:52:32.698Z,99.90
2018-03-23T04:53:35.314Z,99.90
2018-03-23T04:54:38.622Z,99.90
2018-03-23T04:55:41.154Z,99.90
2018-03-23T04:56:44.432Z,99.90
2018-03-23T04:57:47.718Z,99.90
2018-03-23T04:58:50.245Z,99.90
2018-03-23T04:59:52.801Z,99.90
2018-03-23T05:00:55.326Z,99.90
2018-03-23T05:01:57.856Z,99.90
2018-03-23T05:03:00.377Z,99.90
2018-03-23T05:04:02.934Z,99.90
2018-03-23T05:05:05.493Z,99.90
2018-03-23T05:06:08.026Z,99.90
2018-03-23T05:07:10.554Z,99.90
2018-03-23T05:08:13.068Z,99.90
2018-03-23T05:09:16.366Z,99.90
2018-03-23T05:10:18.969Z,99.90
2018-03-23T05:11:21.507Z,99.90
2018-03-23T05:12:24.037Z,99.90
2018-03-23T05:13:26.555Z,99.90
2018-03-23T05:14:29.073Z,99.90
2018-03-23T05:15:31.606Z,99.90
2018-03-23T05:16:34.172Z,99.90
2018-03-23T05:17:36.713Z,99.90
2018-03-23T05:18:39.261Z,99.90
2018-03-23T05:19:42.556Z,99.90
2018-03-23T05:20:45.091Z,99.90
2018-03-23T05:21:47.680Z,99.90
2018-03-23T05:22:50.270Z,99.90
2018-03-23T05:23:52.817Z,99.90
2018-03-23T05:24:55.345Z,99.90
2018-03-23T05:25:57.864Z,99.90
2018-03-23T05:27:00.390Z,99.90
2018-03-23T05:28:03.714Z,99.90
2018-03-23T05:29:06.230Z,99.90
2018-03-23T05:30:08.754Z,99.90
2018-03-23T05:31:11.282Z,99.90
2018-03-23T05:32:14.610Z,99.90
2018-03-23T05:33:17.131Z,99.90
2018-03-23T05:34:20.413Z,99.90
2018-03-23T05:35:23.706Z,99.90
2018-03-23T05:36:26.233Z,99.90
2018-03-23T05:37:28.790Z,99.90
2018-03-23T05:38:31.351Z,99.90
2018-03-23T05:39:33.883Z,99.90
2018-03-23T05:40:36.451Z,99.90
2018-03-23T05:41:38.981Z,99.90
2018-03-23T05:42:41.499Z,99.90
2018-03-23T05:43:44.054Z,99.90
2018-03-23T05:44:46.610Z,99.90
2018-03-23T05:45:49.140Z,99.90
2018-03-23T05:46:51.661Z,99.90
2018-03-23T05:47:54.180Z,99.90
2018-03-23T05:48:56.710Z,99.90
2018-03-23T05:50:00.129Z,99.90
2018-03-23T05:51:02.666Z,99.90
2018-03-23T05:52:05.955Z,99.90
2018-03-23T05:53:08.505Z,99.90
2018-03-23T05:54:11.032Z,99.90
2018-03-23T05:55:14.362Z,99.90
2018-03-23T05:56:16.904Z,99.90
2018-03-23T05:57:19.434Z,99.90
2018-03-23T05:58:21.955Z,99.90
2018-03-23T05:59:24.477Z,99.90
2018-03-23T06:00:27.804Z,99.90
2018-03-23T06:01:30.350Z,99.90
2018-03-23T06:02:32.874Z,99.90
2018-03-23T06:03:35.389Z,99.90
2018-03-23T06:04:37.914Z,99.90
2018-03-23T06:05:41.231Z,99.90
2018-03-23T06:06:43.750Z,99.90
2018-03-23T06:07:46.278Z,99.90
2018-03-23T06:08:48.817Z,99.90
2018-03-23T06:09:52.104Z,99.90
2018-03-23T06:10:54.656Z,99.90
2018-03-23T06:11:57.961Z,99.90
2018-03-23T06:13:00.483Z,99.90
2018-03-23T06:14:03.010Z,99.90
2018-03-23T06:15:05.566Z,99.90
2018-03-23T06:16:08.088Z,99.90
2018-03-23T06:17:10.636Z,99.90
2018-03-23T06:18:13.188Z,99.90
2018-03-23T06:19:15.709Z,99.90
2018-03-23T06:20:19.000Z,99.90
2018-03-23T06:21:21.563Z,99.90
2018-03-23T06:22:24.148Z,99.90
2018-03-23T06:23:26.671Z,99.90
2018-03-23T06:24:29.198Z,99.90
2018-03-23T06:25:31.716Z,99.90
2018-03-23T06:26:35.006Z,99.90
2018-03-23T06:27:38.334Z,99.90
2018-03-23T06:28:40.866Z,99.90
2018-03-23T06:29:43.386Z,99.90
2018-03-23T06:30:45.900Z,99.90
2018-03-23T06:31:48.427Z,99.90
2018-03-23T06:32:50.990Z,99.90
2018-03-23T06:33:53.525Z,99.90
2018-03-23T06:34:56.057Z,99.90
2018-03-23T06:35:59.410Z,99.90
2018-03-23T06:37:01.929Z,99.90
2018-03-23T06:38:04.485Z,99.90
2018-03-23T06:39:07.001Z,99.90
2018-03-23T06:40:09.530Z,99.90
2018-03-23T06:41:12.057Z,99.90
2018-03-23T06:42:15.506Z,99.90
2018-03-23T06:43:18.029Z,99.90
2018-03-23T06:44:20.562Z,99.90
2018-03-23T06:45:23.089Z,99.90
2018-03-23T06:46:25.650Z,99.90
2018-03-23T06:47:28.173Z,99.90
2018-03-23T06:48:31.506Z,99.90
2018-03-23T06:49:34.061Z,99.90
2018-03-23T06:50:36.612Z,99.90
2018-03-23T06:51:39.136Z,99.90
2018-03-23T06:52:41.653Z,99.90
2018-03-23T06:53:44.179Z,99.90
2018-03-23T06:54:46.707Z,99.90
2018-03-23T06:55:49.270Z,99.90
2018-03-23T06:56:51.793Z,99.90
2018-03-23T06:57:55.094Z,99.90
2018-03-23T06:58:57.625Z,99.90
2018-03-23T07:00:00.369Z,99.90
2018-03-23T07:01:03.029Z,99.90
2018-03-23T07:02:05.556Z,99.90
2018-03-23T07:03:08.837Z,99.90
2018-03-23T07:04:12.139Z,99.90
2018-03-23T07:05:14.667Z,99.90
2018-03-23T07:06:17.220Z,99.90
2018-03-23T07:07:19.906Z,99.90
2018-03-23T07:08:22.470Z,99.90
2018-03-23T07:09:25.047Z,99.90
2018-03-23T07:10:28.334Z,99.90
2018-03-23T07:11:31.659Z,99.90
2018-03-23T07:12:34.190Z,99.90
2018-03-23T07:13:37.478Z,99.90
2018-03-23T07:14:40.783Z,99.90
2018-03-23T07:15:43.357Z,99.90
2018-03-23T07:16:45.892Z,99.90
2018-03-23T07:17:49.185Z,99.90
2018-03-23T07:18:51.734Z,99.90
2018-03-23T07:19:55.029Z,99.90
2018-03-23T07:20:58.357Z,99.90
2018-03-23T07:22:00.924Z,99.90
2018-03-23T07:23:03.437Z,99.90
2018-03-23T07:24:06.717Z,99.90
2018-03-23T07:25:10.006Z,99.90
2018-03-23T07:26:13.328Z,99.90
2018-03-23T07:27:15.860Z,99.90
2018-03-23T07:28:19.158Z,99.90
2018-03-23T07:29:21.682Z,99.90
2018-03-23T07:30:24.245Z,99.90
2018-03-23T07:31:26.810Z,99.90
2018-03-23T07:32:29.333Z,99.90
2018-03-23T07:33:31.850Z,99.90
2018-03-23T07:34:34.366Z,99.90
2018-03-23T07:35:36.915Z,99.90
2018-03-23T07:36:40.198Z,99.90
2018-03-23T07:37:42.783Z,99.90
2018-03-23T07:38:46.029Z,99.90
2018-03-23T07:39:49.316Z,99.90
2018-03-23T07:40:52.658Z,99.90
2018-03-23T07:41:55.217Z,99.90
2018-03-23T07:42:57.733Z,99.90
2018-03-23T07:44:01.017Z,99.90
2018-03-23T07:45:04.346Z,99.90
2018-03-23T07:46:06.864Z,99.90
2018-03-23T07:47:10.194Z,99.90
2018-03-23T07:48:12.770Z,99.90
2018-03-23T07:49:15.290Z,99.90
2018-03-23T07:50:18.585Z,99.90
2018-03-23T07:51:21.105Z,99.90
2018-03-23T07:52:23.625Z,99.90
2018-03-23T07:53:26.195Z,99.90
2018-03-23T07:54:28.717Z,99.90
2018-03-23T07:55:31.237Z,99.90
2018-03-23T07:56:33.767Z,99.90
2018-03-23T07:57:37.058Z,99.90
2018-03-23T07:58:40.396Z,99.90
2018-03-23T07:59:42.909Z,99.90
2018-03-23T08:00:46.219Z,99.90
2018-03-23T08:01:48.751Z,99.90
2018-03-23T08:02:52.464Z,99.90
2018-03-23T08:03:55.021Z,99.90
2018-03-23T08:04:58.308Z,99.90
2018-03-23T08:06:00.822Z,99.90
2018-03-23T08:07:03.403Z,99.90
2018-03-23T08:08:05.906Z,99.90
2018-03-23T08:09:09.225Z,99.90
2018-03-23T08:10:11.781Z,99.90
2018-03-23T08:11:14.304Z,99.90
2018-03-23T08:12:17.592Z,99.90
2018-03-23T08:13:20.877Z,99.90
2018-03-23T08:14:24.161Z,99.90
2018-03-23T08:15:27.494Z,99.90
2018-03-23T08:16:30.023Z,99.90
2018-03-23T08:17:33.313Z,99.90
2018-03-23T08:18:35.836Z,99.90
2018-03-23T08:19:38.358Z,99.90
2018-03-23T08:20:40.912Z,99.90
2018-03-23T08:21:43.436Z,99.90
2018-03-23T08:22:45.961Z,99.90
2018-03-23T08:23:48.495Z,99.90
2018-03-23T08:24:51.790Z,99.90
2018-03-23T08:25:54.358Z,99.90
2018-03-23T08:26:56.938Z,99.90
2018-03-23T08:27:59.477Z,99.90
2018-03-23T08:29:02.898Z,99.90
2018-03-23T08:30:05.421Z,99.90
2018-03-23T08:31:08.751Z,99.90
2018-03-23T08:32:12.010Z,99.90
2018-03-23T08:33:14.528Z,99.90
2018-03-23T08:34:17.178Z,99.90
2018-03-23T08:35:19.696Z,99.90
2018-03-23T08:36:23.013Z,99.90
2018-03-23T08:37:25.517Z,99.90
2018-03-23T08:38:28.048Z,99.90
2018-03-23T08:39:30.609Z,99.90
2018-03-23T08:40:33.126Z,99.90
2018-03-23T08:41:35.650Z,99.90
2018-03-23T08:42:38.172Z,99.90
2018-03-23T08:43:41.465Z,99.90
2018-03-23T08:44:44.790Z,99.90
2018-03-23T08:45:47.305Z,99.90
2018-03-23T08:46:50.598Z,99.90
2018-03-23T08:47:53.940Z,99.90
2018-03-23T08:48:56.452Z,99.90
2018-03-23T08:49:59.733Z,99.90
2018-03-23T08:51:03.017Z,99.90
2018-03-23T08:52:06.301Z,99.90
2018-03-23T08:53:09.630Z,99.90
2018-03-23T08:54:12.153Z,99.90
2018-03-23T08:55:15.440Z,99.90
2018-03-23T08:56:18.720Z,99.90
2018-03-23T08:57:22.014Z,99.90
2018-03-23T08:58:24.580Z,99.90
2018-03-23T08:59:27.113Z,99.90
2018-03-23T09:00:29.633Z,99.90
2018-03-23T09:01:32.173Z,99.90
2018-03-23T09:02:34.693Z,99.90
2018-03-23T09:03:37.245Z,99.90
2018-03-23T09:04:39.769Z,99.90
2018-03-23T09:05:43.052Z,99.90
2018-03-23T09:06:46.364Z,99.90
2018-03-23T09:07:48.889Z,99.90
2018-03-23T09:10:01.094Z,99.90
2018-03-23T09:11:04.382Z,99.90
2018-03-23T09:12:06.901Z,99.90
2018-03-23T09:13:09.455Z,99.90
2018-03-23T09:14:11.983Z,99.90
2018-03-23T09:15:15.269Z,99.90
2018-03-23T09:16:17.783Z,99.90
2018-03-23T09:17:20.310Z,99.90
2018-03-23T09:18:22.865Z,99.90
2018-03-23T09:19:25.388Z,99.90
2018-03-23T09:20:27.948Z,99.90
2018-03-23T09:21:31.235Z,99.90
2018-03-23T09:22:33.757Z,99.90
2018-03-23T09:23:36.304Z,99.90
2018-03-23T09:24:39.647Z,99.90
2018-03-23T09:25:42.191Z,99.90
2018-03-23T09:26:44.713Z,99.90
2018-03-23T09:27:47.996Z,99.90
2018-03-23T09:28:51.269Z,99.90
2018-03-23T09:29:53.823Z,99.90
2018-03-23T09:30:56.354Z,99.90
2018-03-23T09:31:58.873Z,99.90
2018-03-23T09:33:01.406Z,99.90
2018-03-23T09:34:03.921Z,99.90
2018-03-23T09:35:07.237Z,99.90
2018-03-23T09:36:09.752Z,99.90
2018-03-23T09:37:12.357Z,99.90
2018-03-23T09:38:15.609Z,99.90
2018-03-23T09:39:18.897Z,99.90
2018-03-23T09:40:22.226Z,99.90
2018-03-23T09:41:24.762Z,99.90
2018-03-23T09:42:27.277Z,99.90
2018-03-23T09:43:29.830Z,99.90
2018-03-23T09:44:32.372Z,99.90
2018-03-23T09:45:34.912Z,99.90
2018-03-23T09:46:38.225Z,99.90
2018-03-23T09:47:40.745Z,99.90
2018-03-23T09:48:43.283Z,99.90
2018-03-23T09:49:45.797Z,99.90
2018-03-23T09:50:49.086Z,99.90
2018-03-23T09:51:52.481Z,99.90
2018-03-23T09:52:54.951Z,99.90
2018-03-23T09:53:57.489Z,99.90
2018-03-23T09:55:00.028Z,99.90
2018-03-23T09:56:02.544Z,99.90
2018-03-23T09:57:05.119Z,99.90
2018-03-23T09:58:07.638Z,99.90
2018-03-23T09:59:10.162Z,99.90
2018-03-23T10:00:12.689Z,99.90
2018-03-23T10:01:15.965Z,99.90
2018-03-23T10:02:18.533Z,99.90
2018-03-23T10:03:21.826Z,99.90
2018-03-23T10:04:25.120Z,99.70
2018-03-23T10:05:27.696Z,99.70
2018-03-23T10:06:30.962Z,99.50
2018-03-23T10:07:34.282Z,99.70
2018-03-23T10:08:36.839Z,99.80
2018-03-23T10:09:39.358Z,99.20
2018-03-23T10:10:41.886Z,99.20
2018-03-23T10:11:44.406Z,99.70
2018-03-23T10:12:47.688Z,99.00
2018-03-23T10:13:51.025Z,99.20
2018-03-23T10:14:53.548Z,99.10
2018-03-23T10:15:56.820Z,99.60
2018-03-23T10:16:59.338Z,99.60
2018-03-23T10:18:01.855Z,99.30
2018-03-23T10:19:05.181Z,99.80
2018-03-23T10:20:07.704Z,99.70
2018-03-23T10:21:11.063Z,99.50
2018-03-23T10:22:13.537Z,99.50
2018-03-23T10:23:16.062Z,99.50
2018-03-23T10:24:18.618Z,99.60
2018-03-23T10:25:21.134Z,98.70
2018-03-23T10:26:23.684Z,98.50
2018-03-23T10:27:26.229Z,98.00
2018-03-23T10:28:28.746Z,96.90
2018-03-23T10:29:32.037Z,97.30
2018-03-23T10:30:35.312Z,97.00
2018-03-23T10:31:37.867Z,97.00
2018-03-23T10:32:40.394Z,97.60
2018-03-23T10:33:42.957Z,97.70
2018-03-23T10:34:45.483Z,97.50
2018-03-23T10:35:48.759Z,98.60
2018-03-23T10:36:51.281Z,98.60
2018-03-23T10:37:53.837Z,99.20
2018-03-23T10:38:56.390Z,99.30
2018-03-23T10:39:58.917Z,99.20
2018-03-23T10:41:01.471Z,99.40
2018-03-23T10:42:03.981Z,99.50
2018-03-23T10:43:06.530Z,99.00
2018-03-23T10:44:09.865Z,99.70
2018-03-23T10:45:12.379Z,99.70
2018-03-23T10:46:15.728Z,99.30
2018-03-23T10:47:18.253Z,99.40
2018-03-23T10:48:20.776Z,99.80
2018-03-23T10:49:23.328Z,99.90
2018-03-23T10:50:25.845Z,99.90
2018-03-23T10:51:28.389Z,99.80
2018-03-23T10:52:31.687Z,99.90
2018-03-23T10:53:34.991Z,99.90
2018-03-23T10:54:37.510Z,99.90
2018-03-23T10:55:40.024Z,99.90
2018-03-23T10:56:42.584Z,99.90
2018-03-23T10:57:45.109Z,99.90
2018-03-23T10:58:47.624Z,99.90
2018-03-23T10:59:50.143Z,99.90
2018-03-23T11:00:58.234Z,99.90
2018-03-23T11:02:06.598Z,99.50
2018-03-23T11:03:09.124Z,98.80
2018-03-23T11:04:11.646Z,98.30
2018-03-23T11:05:14.248Z,98.60
2018-03-23T11:06:16.714Z,99.30
2018-03-23T11:07:19.292Z,99.10
2018-03-23T11:08:22.576Z,99.00
2018-03-23T11:09:25.104Z,99.00
2018-03-23T11:10:27.629Z,98.90
2018-03-23T11:11:30.159Z,97.80
2018-03-23T11:12:32.726Z,97.40
2018-03-23T11:13:35.294Z,97.70
2018-03-23T11:14:37.825Z,97.80
2018-03-23T11:15:40.351Z,97.80
2018-03-23T11:16:42.870Z,98.00
2018-03-23T11:17:45.390Z,97.60
2018-03-23T11:18:47.952Z,98.20
2018-03-23T11:19:50.486Z,98.50
2018-03-23T11:20:53.010Z,98.00
2018-03-23T11:21:55.529Z,97.60
2018-03-23T11:22:58.845Z,97.50
2018-03-23T11:24:01.411Z,97.50
2018-03-23T11:25:03.930Z,98.00
2018-03-23T11:26:06.448Z,97.90
2018-03-23T11:27:08.963Z,98.10
2018-03-23T11:28:11.483Z,97.90
2018-03-23T11:29:14.104Z,97.90
2018-03-23T11:30:16.672Z,97.70
2018-03-23T11:31:19.155Z,97.70
2018-03-23T11:32:22.445Z,96.90
2018-03-23T11:33:24.971Z,96.90
2018-03-23T11:34:27.502Z,96.90
2018-03-23T11:35:30.073Z,96.90
2018-03-23T11:36:32.607Z,97.20
2018-03-23T11:37:35.886Z,96.80
2018-03-23T11:38:39.207Z,96.60
2018-03-23T11:39:41.760Z,96.60
2018-03-23T11:40:44.346Z,95.70
2018-03-23T11:41:46.929Z,95.70
2018-03-23T11:42:49.437Z,95.20
2018-03-23T11:43:52.725Z,94.90
2018-03-23T11:44:55.270Z,94.90
2018-03-23T11:45:58.605Z,95.10
2018-03-23T11:47:01.127Z,95.10
2018-03-23T11:48:04.419Z,95.50
2018-03-23T11:49:07.716Z,95.40
2018-03-23T11:50:10.238Z,95.40
2018-03-23T11:51:12.800Z,95.00
2018-03-23T11:52:15.344Z,94.40
2018-03-23T11:53:17.876Z,94.90
2018-03-23T11:54:20.432Z,95.30
2018-03-23T11:55:23.714Z,95.60
2018-03-23T11:56:27.027Z,96.30
2018-03-23T11:57:29.542Z,96.30
2018-03-23T11:58:32.058Z,96.20
2018-03-23T11:59:34.601Z,96.30
2018-03-23T12:00:37.926Z,96.70
2018-03-23T12:01:40.433Z,96.70
2018-03-23T12:02:42.953Z,96.80
2018-03-23T12:03:45.478Z,97.10
2018-03-23T12:04:48.762Z,96.40
2018-03-23T12:05:52.082Z,95.60
2018-03-23T12:06:54.606Z,95.60
2018-03-23T12:07:57.910Z,95.70
2018-03-23T12:09:00.420Z,95.60
2018-03-23T12:10:02.949Z,94.70
2018-03-23T12:11:05.516Z,94.90
2018-03-23T12:12:08.044Z,95.30
2018-03-23T12:13:10.606Z,95.30
2018-03-23T12:14:13.146Z,94.60
2018-03-23T12:15:15.704Z,94.20
2018-03-23T12:16:18.221Z,94.40
2018-03-23T12:17:21.546Z,94.50
2018-03-23T12:18:24.070Z,94.20
2018-03-23T12:19:27.361Z,94.10
2018-03-23T12:20:29.935Z,94.00
2018-03-23T12:21:32.478Z,95.10
2018-03-23T12:22:34.994Z,94.90
2018-03-23T12:23:37.668Z,94.80
2018-03-23T12:24:40.189Z,94.50
2018-03-23T12:25:43.504Z,94.40
2018-03-23T12:26:46.040Z,94.40
2018-03-23T12:27:49.333Z,94.00
2018-03-23T12:28:52.666Z,94.50
2018-03-23T12:29:55.230Z,94.60
2018-03-23T12:30:57.741Z,94.10
2018-03-23T12:32:01.029Z,94.60
2018-03-23T12:33:04.322Z,94.20
2018-03-23T12:34:06.868Z,94.20
2018-03-23T12:35:10.151Z,94.60
2018-03-23T12:36:13.477Z,95.10
2018-03-23T12:37:15.996Z,95.10
2018-03-23T12:38:18.510Z,94.50
2018-03-23T12:39:21.024Z,94.30
2018-03-23T12:40:23.553Z,95.10
2018-03-23T12:41:26.109Z,95.20
2018-03-23T12:42:28.638Z,94.80
2018-03-23T12:43:31.148Z,95.10
2018-03-23T12:44:33.677Z,95.20
2018-03-23T12:45:37.047Z,95.50
2018-03-23T12:46:39.584Z,95.40
2018-03-23T12:47:42.108Z,95.80
2018-03-23T12:48:44.688Z,95.60
2018-03-23T12:49:47.248Z,96.00
2018-03-23T12:50:49.813Z,95.80
2018-03-23T12:51:53.122Z,95.70
2018-03-23T12:52:55.642Z,95.70
2018-03-23T12:53:58.941Z,96.20
2018-03-23T12:55:01.461Z,96.20
2018-03-23T12:56:03.981Z,96.50
2018-03-23T12:57:06.545Z,96.30
2018-03-23T12:58:09.058Z,96.20
2018-03-23T12:59:11.577Z,96.30
2018-03-23T13:00:14.100Z,96.00
2018-03-23T13:01:16.632Z,95.90
2018-03-23T13:02:19.191Z,96.30
2018-03-23T13:03:21.710Z,95.80
2018-03-23T13:04:24.999Z,95.30
2018-03-23T13:05:28.299Z,95.20
2018-03-23T13:06:30.823Z,95.40
2018-03-23T13:07:33.380Z,94.80
2018-03-23T13:08:35.890Z,95.40
2018-03-23T13:09:39.315Z,95.40
2018-03-23T13:10:41.829Z,95.40
2018-03-23T13:11:45.154Z,94.90
2018-03-23T13:12:47.705Z,94.90
2018-03-23T13:13:50.222Z,94.90
2018-03-23T13:14:52.812Z,94.80
2018-03-23T13:15:56.095Z,94.30
2018-03-23T13:16:59.385Z,93.10
2018-03-23T13:18:02.695Z,93.10
2018-03-23T13:19:05.217Z,93.10
2018-03-23T13:20:07.789Z,93.60
2018-03-23T13:21:10.313Z,94.30
2018-03-23T13:22:12.843Z,94.90
2018-03-23T13:23:15.371Z,94.90
2018-03-23T13:24:17.897Z,94.80
2018-03-23T13:25:20.474Z,95.10
2018-03-23T13:26:23.006Z,94.90
2018-03-23T13:27:25.576Z,95.20
2018-03-23T13:28:28.135Z,95.00
2018-03-23T13:29:31.467Z,94.70
2018-03-23T13:30:33.957Z,94.70